Нальчик

Карта отелей и гостиниц, располагающихся рядом с аэропортом Нальчик :

Нальчик Кабардино-Балкарская республика 43° 30' 46.5588" N, 43° 38' 11.94" E
Код аэродрома ИКАО
URMN
Код аэродрома RU
УРМН
Координаты
N43.51293° E043.63665°
Превышение над уровнем моря
446
Основная полоса
06L/24R
Курс магнитный
055,8/235,8
Длина основной ВПП
2200
Ширина основной ВПП
42
Покрытие основной ВПП
Твёрдое
Освещение ВПП
Постоянное
Тип: 
Аэродром
Класс аэродрома: 
Международный
Принадлежность: 
ГА
Статус: 
Действующий
Сайт: 
http://airport-nalchik.ru/
E-mail аэродрома: 
nalavia@mail.ru
Страна: 
Россия
Регион: 
Кабардино-Балкарская республика
Дополнительная информация: 
Горный. Совместного базирования. Нкр.=(100-500)м. Оператор: ФГУП «Эльбрус-Авиа». Военный индекс: XRMN / ЬРМН.
Схемы аэропортов: 
Погода: 

Авиационная погода в Нальчике

Регион: 
Погода METAR: 
URMN 261800Z 19003MPS 9999 SCT032 BKN/// 05/M02 Q1022 R24/////// NOSIG RMK QFE730
Время наблюдения
2021-02-26T18:00:00Z
Температура C
5.0
Точка росы
-2.0
Направление ветра
190
Скорость ветра (узлы)
6
Метео видимость
6.21
Явления погоды
Условия полета
VFR
Аэропорт подробнее: 

Найти трансфер

С помощью этой формы Вы можете найти трансфер из аэропорта Нальчик в город, аэропорт или вокзал:

Карта места

Javascript is required to view this map.

Погода в аэропортах:

Авиационная погода в Череповце

Регион: 
Погода METAR: 
ULWC 261730Z 01002G07MPS 6000 -SN OVC006 M09/M10 Q0995 RESN R21/591036 NOSIG RMK QFE736/0982
Время наблюдения
2021-02-26T17:30:00Z
Температура C
-9.0
Точка росы
-10.0
Направление ветра
10
Скорость ветра (узлы)
4
Метео видимость
3.73
Явления погоды
-SN
Условия полета
IFR
Аэропорт подробнее: 

Авиационная погода в Казани

Регион: 
Погода METAR: 
UWKD 261730Z 14008G13MPS 1100 0800SE R11/P2000N +SN BLSN OVC013 M14/M16 Q1004 R11/422040 NOSIG RMK QFE743/0991
Время наблюдения
2021-02-26T17:30:00Z
Температура C
-14.0
Точка росы
-16.0
Направление ветра
140
Скорость ветра (узлы)
16
Метео видимость
0.68
Явления погоды
BLSN +SN
Условия полета
LIFR
Аэропорт подробнее: 

Авиационная погода в Архангельске

Регион: 
Погода METAR: 
ULAA 261730Z 15003MPS 110V220 4800 -SHSN BKN007CB OVC016 M11/M13 Q1002 R08/490538 NOSIG RMK QFE751/1001
Время наблюдения
2021-02-26T17:30:00Z
Температура C
-11.0
Точка росы
-13.0
Направление ветра
150
Скорость ветра (узлы)
6
Метео видимость
2.98
Явления погоды
-SHSN
Условия полета
IFR
Аэропорт подробнее: 

Авиационная погода в Дашогузе

Регион: 
Погода METAR: 
UTAT 261800Z 19012KT 9999 -SN OVC033 M02/M06 Q1025 R08/CLRD70 NOSIG
Время наблюдения
2021-02-26T18:00:00Z
Температура C
-2.0
Точка росы
-6.0
Направление ветра
190
Скорость ветра (узлы)
12
Метео видимость
6.21
Явления погоды
-SN
Условия полета
VFR